createdAt,value
2023-05-23T00:00:53.292Z,30.81
2023-05-23T00:03:25.363Z,30.70
2023-05-23T00:05:55.162Z,30.73
2023-05-23T00:08:24.673Z,30.73
2023-05-23T00:10:54.620Z,30.73
2023-05-23T00:13:24.564Z,30.72
2023-05-23T00:15:53.725Z,30.75
2023-05-23T00:18:25.996Z,30.76
2023-05-23T00:20:55.415Z,30.74
2023-05-23T00:23:26.543Z,30.75
2023-05-23T00:25:56.413Z,30.72
2023-05-23T00:28:27.081Z,30.76
2023-05-23T00:30:56.509Z,30.77
2023-05-23T00:33:26.388Z,30.83
2023-05-23T00:35:55.659Z,30.87
2023-05-23T00:38:24.923Z,30.84
2023-05-23T00:40:54.386Z,30.94
2023-05-23T00:43:24.021Z,30.94
2023-05-23T00:45:54.069Z,30.94
2023-05-23T00:48:23.732Z,30.99
2023-05-23T00:50:53.414Z,31.03
2023-05-23T00:53:23.375Z,31.07
2023-05-23T00:55:53.219Z,31.10
2023-05-23T00:58:22.887Z,31.13
2023-05-23T01:00:55.663Z,31.14
2023-05-23T01:03:29.781Z,31.20
2023-05-23T01:05:59.329Z,31.21
2023-05-23T01:08:30.924Z,31.20
2023-05-23T01:11:06.382Z,31.19
2023-05-23T01:13:44.399Z,31.24
2023-05-23T01:16:14.069Z,31.29
2023-05-23T01:18:55.497Z,31.39
2023-05-23T01:21:26.948Z,31.46
2023-05-23T01:24:05.042Z,31.54
2023-05-23T01:26:46.982Z,31.59
2023-05-23T01:29:24.150Z,31.66
2023-05-23T01:31:57.339Z,31.62
2023-05-23T01:34:26.352Z,31.62
2023-05-23T01:36:58.945Z,31.62
2023-05-23T01:39:28.290Z,31.63
2023-05-23T01:41:57.838Z,31.57
2023-05-23T01:44:28.189Z,31.59
2023-05-23T01:46:58.072Z,31.60
2023-05-23T01:49:29.226Z,31.62
2023-05-23T01:52:03.259Z,31.84
2023-05-23T01:54:33.896Z,32.15
2023-05-23T01:57:04.554Z,32.46
2023-05-23T01:59:34.785Z,32.73
2023-05-23T02:02:04.461Z,32.93
2023-05-23T02:04:34.106Z,33.25
2023-05-23T02:07:03.449Z,33.48
2023-05-23T02:09:33.453Z,33.78
2023-05-23T02:12:02.553Z,34.04
2023-05-23T02:14:31.934Z,33.98
2023-05-23T02:17:01.762Z,34.27
2023-05-23T02:19:31.635Z,34.54
2023-05-23T02:22:01.418Z,34.74
2023-05-23T02:24:30.496Z,35.06
2023-05-23T02:26:59.730Z,34.96
2023-05-23T02:29:28.924Z,35.17
2023-05-23T02:31:58.457Z,35.03
2023-05-23T02:34:27.843Z,35.12
2023-05-23T02:36:57.145Z,35.19
2023-05-23T02:39:26.399Z,35.18
2023-05-23T02:41:56.624Z,35.41
2023-05-23T02:44:27.908Z,35.27
2023-05-23T02:46:57.262Z,35.75
2023-05-23T02:49:26.731Z,35.99
2023-05-23T02:51:56.279Z,35.95
2023-05-23T02:54:25.511Z,36.17
2023-05-23T02:56:55.893Z,36.35
2023-05-23T02:59:25.390Z,36.59
2023-05-23T03:01:54.718Z,36.52
2023-05-23T03:04:25.024Z,36.54
2023-05-23T03:06:55.620Z,36.91
2023-05-23T03:09:24.949Z,36.75
2023-05-23T03:11:54.805Z,36.32
2023-05-23T03:14:24.921Z,36.04
2023-05-23T03:16:54.032Z,35.76
2023-05-23T03:19:23.659Z,35.78
2023-05-23T03:21:53.700Z,35.88
2023-05-23T03:24:23.046Z,36.09
2023-05-23T03:26:52.632Z,36.14
2023-05-23T03:29:22.249Z,36.12
2023-05-23T03:31:51.690Z,36.27
2023-05-23T03:34:21.634Z,36.45
2023-05-23T03:36:51.040Z,36.55
2023-05-23T03:39:20.433Z,36.59
2023-05-23T03:41:50.088Z,36.76
2023-05-23T03:44:19.816Z,36.83
2023-05-23T03:46:49.022Z,36.92
2023-05-23T03:49:19.814Z,36.89
2023-05-23T03:51:49.740Z,36.91
2023-05-23T03:54:20.333Z,36.95
2023-05-23T03:56:49.719Z,36.83
2023-05-23T03:59:19.697Z,37.16
2023-05-23T04:01:49.338Z,37.35
2023-05-23T04:04:19.297Z,37.24
2023-05-23T04:06:49.174Z,37.16
2023-05-23T04:09:19.009Z,37.42
2023-05-23T04:11:50.255Z,37.50
2023-05-23T04:14:23.505Z,37.64
2023-05-23T04:16:53.804Z,37.57
2023-05-23T04:19:23.511Z,37.50
2023-05-23T04:21:54.580Z,37.65
2023-05-23T04:24:24.900Z,37.77
2023-05-23T04:26:57.479Z,38.12
2023-05-23T04:29:27.612Z,38.22
2023-05-23T04:31:57.496Z,38.23
2023-05-23T04:34:27.172Z,38.36
2023-05-23T04:36:56.606Z,38.38
2023-05-23T04:39:26.800Z,38.38
2023-05-23T04:42:15.168Z,38.49
2023-05-23T04:45:17.111Z,38.70
2023-05-23T04:48:10.111Z,38.59
2023-05-23T04:50:49.139Z,38.54
2023-05-23T04:53:20.390Z,38.67
2023-05-23T04:55:50.196Z,38.91
2023-05-23T04:58:22.481Z,39.07
2023-05-23T05:00:52.166Z,39.15
2023-05-23T05:03:21.553Z,39.23
2023-05-23T05:05:51.017Z,39.32
2023-05-23T05:08:23.282Z,39.17
2023-05-23T05:10:53.259Z,39.09
2023-05-23T05:13:23.220Z,39.35
2023-05-23T05:15:55.534Z,39.44
2023-05-23T05:18:30.137Z,39.46
2023-05-23T05:21:00.829Z,39.55
2023-05-23T05:23:30.053Z,39.60
2023-05-23T05:26:02.072Z,39.74
2023-05-23T05:28:31.343Z,39.88
2023-05-23T05:31:01.498Z,39.75
2023-05-23T05:33:36.951Z,39.62
2023-05-23T05:36:11.371Z,39.63
2023-05-23T05:38:40.902Z,39.51
2023-05-23T05:41:10.329Z,39.67
2023-05-23T05:43:44.335Z,39.77
2023-05-23T05:46:14.004Z,39.71
2023-05-23T05:48:43.903Z,39.91
2023-05-23T05:51:15.059Z,39.82
2023-05-23T05:53:45.202Z,39.94
2023-05-23T05:56:15.069Z,39.81
2023-05-23T05:58:44.692Z,39.73
2023-05-23T06:01:16.297Z,39.45
2023-05-23T06:03:46.041Z,39.29
2023-05-23T06:06:15.462Z,39.13
2023-05-23T06:08:46.204Z,39.28
2023-05-23T06:11:19.220Z,39.35
2023-05-23T06:13:48.833Z,39.20
2023-05-23T06:16:18.303Z,39.09
2023-05-23T06:18:47.967Z,38.96
2023-05-23T06:21:17.801Z,38.75
2023-05-23T06:23:51.393Z,38.84
2023-05-23T06:26:21.051Z,38.71
2023-05-23T06:28:50.742Z,38.87
2023-05-23T06:31:20.098Z,38.80
2023-05-23T06:33:49.401Z,38.64
2023-05-23T06:36:19.648Z,38.70
2023-05-23T06:38:50.511Z,38.63
2023-05-23T06:41:20.648Z,38.70
2023-05-23T06:43:49.889Z,38.67
2023-05-23T06:46:26.319Z,38.65
2023-05-23T06:49:06.578Z,38.85
2023-05-23T06:51:45.218Z,38.92
2023-05-23T06:54:14.631Z,38.89
2023-05-23T06:56:44.287Z,38.98
2023-05-23T06:59:13.609Z,39.01
2023-05-23T07:01:42.787Z,38.96
2023-05-23T07:04:13.615Z,38.93
2023-05-23T07:06:43.395Z,38.90
2023-05-23T07:09:14.307Z,38.84
2023-05-23T07:11:43.612Z,38.87
2023-05-23T07:14:13.462Z,39.02
2023-05-23T07:16:44.594Z,39.14
2023-05-23T07:19:14.664Z,39.18
2023-05-23T07:21:47.938Z,39.18
2023-05-23T07:24:19.894Z,39.14
2023-05-23T07:26:49.795Z,39.19
2023-05-23T07:29:20.032Z,39.25
2023-05-23T07:31:51.523Z,39.18
2023-05-23T07:34:22.520Z,39.11
2023-05-23T07:36:56.584Z,39.13
2023-05-23T07:39:29.521Z,39.11
2023-05-23T07:42:01.990Z,39.33
2023-05-23T07:44:31.750Z,39.35
2023-05-23T07:47:01.125Z,39.35
2023-05-23T07:49:31.472Z,39.31
2023-05-23T07:52:00.822Z,39.31
2023-05-23T07:54:30.740Z,39.31
2023-05-23T07:57:01.723Z,39.32
2023-05-23T07:59:31.591Z,39.39
2023-05-23T08:02:01.223Z,39.36
2023-05-23T08:04:31.617Z,39.24
2023-05-23T08:07:05.662Z,39.20
2023-05-23T08:09:58.586Z,39.29
2023-05-23T08:12:28.553Z,39.24
2023-05-23T08:15:09.613Z,39.11
2023-05-23T08:17:44.850Z,39.01
2023-05-23T08:20:18.095Z,38.99
2023-05-23T08:22:48.286Z,38.86
2023-05-23T08:25:17.851Z,38.84
2023-05-23T08:27:47.140Z,38.81
2023-05-23T08:30:39.321Z,38.69
2023-05-23T08:33:09.334Z,38.52
2023-05-23T08:35:43.073Z,38.50
2023-05-23T08:38:14.301Z,38.53
2023-05-23T08:41:02.821Z,38.43
2023-05-23T08:43:33.551Z,38.45
2023-05-23T08:46:05.963Z,38.15
2023-05-23T08:48:42.486Z,37.98
2023-05-23T08:51:14.767Z,37.80
2023-05-23T08:53:48.249Z,37.63
2023-05-23T08:56:17.959Z,37.47
2023-05-23T08:58:50.978Z,37.16
2023-05-23T09:01:23.864Z,37.05
2023-05-23T09:04:01.470Z,36.85
2023-05-23T09:06:38.710Z,36.60
2023-05-23T09:09:08.585Z,36.50
2023-05-23T09:11:38.733Z,36.39
2023-05-23T09:14:11.623Z,36.27
2023-05-23T09:16:41.976Z,36.13
2023-05-23T09:19:16.292Z,36.10
2023-05-23T09:21:55.200Z,36.08
2023-05-23T09:24:39.754Z,36.02
2023-05-23T09:27:11.097Z,36.04
2023-05-23T09:29:44.671Z,36.02
2023-05-23T09:32:18.259Z,36.05
2023-05-23T09:35:03.466Z,36.04
2023-05-23T09:37:34.141Z,36.01
2023-05-23T09:40:12.762Z,36.01
2023-05-23T09:42:48.896Z,35.99
2023-05-23T09:45:20.244Z,35.95
2023-05-23T09:47:55.853Z,36.04
2023-05-23T09:50:37.058Z,36.02
2023-05-23T09:53:07.085Z,36.10
2023-05-23T09:55:38.121Z,36.13
2023-05-23T09:58:09.703Z,36.17
2023-05-23T10:00:40.096Z,36.19
2023-05-23T10:03:18.519Z,36.21
2023-05-23T10:06:02.789Z,36.22
2023-05-23T10:08:37.492Z,36.26
2023-05-23T10:11:15.935Z,36.24
2023-05-23T10:13:47.283Z,36.21
2023-05-23T10:16:42.048Z,36.28
2023-05-23T10:19:22.097Z,36.30
2023-05-23T10:21:56.845Z,36.37
2023-05-23T10:24:27.676Z,36.45
2023-05-23T10:26:57.861Z,36.43
2023-05-23T10:29:28.083Z,36.36
2023-05-23T10:31:59.413Z,36.28
2023-05-23T10:34:32.623Z,36.21
2023-05-23T10:37:09.598Z,36.14
2023-05-23T10:40:00.806Z,36.07
2023-05-23T10:42:47.312Z,36.01
2023-05-23T10:45:18.879Z,35.94
2023-05-23T10:47:54.301Z,35.92
2023-05-23T10:50:35.064Z,35.89
2023-05-23T10:53:07.486Z,35.95
2023-05-23T10:55:38.627Z,35.98
2023-05-23T10:58:13.436Z,35.98
2023-05-23T11:01:02.558Z,35.98
2023-05-23T11:03:39.627Z,36.00
2023-05-23T11:06:29.277Z,36.06
2023-05-23T11:09:10.939Z,36.04
2023-05-23T11:12:04.583Z,36.06
2023-05-23T11:14:56.015Z,36.17
2023-05-23T11:17:55.267Z,36.26
2023-05-23T11:20:29.815Z,36.30
2023-05-23T11:23:03.947Z,36.43
2023-05-23T11:25:46.241Z,36.50
2023-05-23T11:28:16.463Z,36.57
2023-05-23T11:30:50.894Z,36.66
2023-05-23T11:33:21.234Z,36.71
2023-05-23T11:35:52.996Z,36.79
2023-05-23T11:38:22.837Z,36.81
2023-05-23T11:40:51.981Z,36.68
2023-05-23T11:43:21.775Z,36.78
2023-05-23T11:45:51.169Z,36.81
2023-05-23T11:48:20.610Z,36.77
2023-05-23T11:50:53.757Z,36.81
2023-05-23T11:53:26.410Z,36.80
2023-05-23T11:55:59.443Z,36.78
2023-05-23T11:58:29.294Z,36.82
2023-05-23T12:01:06.566Z,36.80
2023-05-23T12:03:46.261Z,36.79
2023-05-23T12:06:20.886Z,36.81
2023-05-23T12:08:50.838Z,36.80
2023-05-23T12:11:20.041Z,36.75
2023-05-23T12:13:49.613Z,36.70
2023-05-23T12:16:18.692Z,36.72
2023-05-23T12:18:49.105Z,36.69
2023-05-23T12:21:18.545Z,36.66
2023-05-23T12:23:48.665Z,36.64
2023-05-23T12:26:18.590Z,36.64
2023-05-23T12:28:48.112Z,36.66
2023-05-23T12:31:23.837Z,36.63
2023-05-23T12:33:55.195Z,36.57
2023-05-23T12:36:29.861Z,36.56
2023-05-23T12:39:05.615Z,36.49
2023-05-23T12:41:35.587Z,36.40
2023-05-23T12:44:06.025Z,36.34
2023-05-23T12:46:35.732Z,36.23
2023-05-23T12:49:05.276Z,36.08
2023-05-23T12:51:34.827Z,35.95
2023-05-23T12:54:04.480Z,35.83
2023-05-23T12:56:34.134Z,35.66
2023-05-23T12:59:05.290Z,35.56
2023-05-23T13:01:36.361Z,35.48
2023-05-23T13:04:06.062Z,35.39
2023-05-23T13:06:35.541Z,35.32
2023-05-23T13:09:05.307Z,35.28
2023-05-23T13:11:34.641Z,35.27
2023-05-23T13:14:13.833Z,35.18
2023-05-23T13:16:46.756Z,35.09
2023-05-23T13:19:16.467Z,34.96
2023-05-23T13:21:47.932Z,34.86
2023-05-23T13:24:19.732Z,34.80
2023-05-23T13:26:50.142Z,34.73
2023-05-23T13:29:19.389Z,34.70
2023-05-23T13:31:48.903Z,34.62
2023-05-23T13:34:18.125Z,34.54
2023-05-23T13:36:47.471Z,34.42
2023-05-23T13:39:18.200Z,34.29
2023-05-23T13:41:49.774Z,34.21
2023-05-23T13:44:19.285Z,34.15
2023-05-23T13:46:48.716Z,34.11
2023-05-23T13:49:18.138Z,34.03
2023-05-23T13:51:48.081Z,33.94
2023-05-23T13:54:17.987Z,33.84
2023-05-23T13:56:47.590Z,33.75
2023-05-23T13:59:22.138Z,33.71
2023-05-23T14:01:51.869Z,33.67
2023-05-23T14:04:21.788Z,33.65
2023-05-23T14:06:52.091Z,33.63
2023-05-23T14:09:23.338Z,33.59
2023-05-23T14:11:53.404Z,33.57
2023-05-23T14:14:22.624Z,33.55
2023-05-23T14:16:55.256Z,33.44
2023-05-23T14:19:24.599Z,33.44
2023-05-23T14:21:54.192Z,33.45
2023-05-23T14:24:23.526Z,33.51
2023-05-23T14:26:53.204Z,33.64
2023-05-23T14:29:23.213Z,33.65
2023-05-23T14:31:53.432Z,33.62
2023-05-23T14:34:23.151Z,33.56
2023-05-23T14:36:52.648Z,33.46
2023-05-23T14:39:22.861Z,33.41
2023-05-23T14:41:53.842Z,33.37
2023-05-23T14:44:23.192Z,33.34
2023-05-23T14:46:52.649Z,33.33
2023-05-23T14:49:22.098Z,33.33
2023-05-23T14:51:52.028Z,33.28
2023-05-23T14:54:21.770Z,33.33
2023-05-23T14:56:53.176Z,33.46
2023-05-23T14:59:23.217Z,33.49
2023-05-23T15:01:53.161Z,33.49
2023-05-23T15:04:27.849Z,33.41
2023-05-23T15:06:57.190Z,33.34
2023-05-23T15:09:28.638Z,33.28
2023-05-23T15:11:58.294Z,33.23
2023-05-23T15:14:30.867Z,33.16
2023-05-23T15:17:08.834Z,33.12
2023-05-23T15:19:40.316Z,33.03
2023-05-23T15:22:18.362Z,32.95
2023-05-23T15:24:52.171Z,32.89
2023-05-23T15:27:23.331Z,32.86
2023-05-23T15:29:52.881Z,32.78
2023-05-23T15:32:22.332Z,32.69
2023-05-23T15:34:52.265Z,32.57
2023-05-23T15:37:21.496Z,32.53
2023-05-23T15:39:51.743Z,32.51
2023-05-23T15:42:21.150Z,32.50
2023-05-23T15:44:50.832Z,32.51
2023-05-23T15:47:21.712Z,32.48
2023-05-23T15:49:51.783Z,32.50
2023-05-23T15:52:21.182Z,32.47
2023-05-23T15:54:50.778Z,32.44
2023-05-23T15:57:20.170Z,32.38
2023-05-23T15:59:49.868Z,32.35
2023-05-23T16:02:20.497Z,32.27
2023-05-23T16:04:50.222Z,32.23
2023-05-23T16:07:19.246Z,32.22
2023-05-23T16:09:48.624Z,32.21
2023-05-23T16:12:18.709Z,32.17
2023-05-23T16:14:48.167Z,32.11
2023-05-23T16:17:17.868Z,32.09
2023-05-23T16:19:47.877Z,32.06
2023-05-23T16:22:17.800Z,32.07
2023-05-23T16:24:47.976Z,32.00
2023-05-23T16:27:17.491Z,32.00
2023-05-23T16:29:47.610Z,31.99
2023-05-23T16:32:18.366Z,32.00
2023-05-23T16:34:54.584Z,32.02
2023-05-23T16:37:25.244Z,31.98
2023-05-23T16:39:54.780Z,31.98
2023-05-23T16:42:24.014Z,31.98
2023-05-23T16:44:53.603Z,31.98
2023-05-23T16:47:23.806Z,31.97
2023-05-23T16:49:58.585Z,31.98
2023-05-23T16:52:27.934Z,32.04
2023-05-23T16:54:57.272Z,32.06
2023-05-23T16:57:27.168Z,32.11
2023-05-23T16:59:56.413Z,32.09
2023-05-23T17:02:26.513Z,32.05
2023-05-23T17:04:56.834Z,32.05
2023-05-23T17:07:26.370Z,32.08
2023-05-23T17:09:55.898Z,32.07
2023-05-23T17:12:25.115Z,32.08
2023-05-23T17:14:54.618Z,32.00
2023-05-23T17:17:24.070Z,31.93
2023-05-23T17:19:53.549Z,31.87
2023-05-23T17:22:23.595Z,31.84
2023-05-23T17:24:53.687Z,31.73
2023-05-23T17:27:23.885Z,31.73
2023-05-23T17:29:53.425Z,31.69
2023-05-23T17:32:23.687Z,31.63
2023-05-23T17:34:53.523Z,31.59
2023-05-23T17:37:22.677Z,31.56
2023-05-23T17:39:53.603Z,31.56
2023-05-23T17:42:24.896Z,31.52
2023-05-23T17:44:55.398Z,31.49
2023-05-23T17:47:25.893Z,31.51
2023-05-23T17:49:55.982Z,31.45
2023-05-23T17:52:25.841Z,31.42
2023-05-23T17:54:58.123Z,31.47
2023-05-23T17:57:29.032Z,31.48
2023-05-23T18:00:55.964Z,31.53
2023-05-23T18:03:44.497Z,31.55
2023-05-23T18:06:14.114Z,31.52
2023-05-23T18:08:43.440Z,31.53
2023-05-23T18:11:13.261Z,31.51
2023-05-23T18:13:42.807Z,31.49
2023-05-23T18:16:12.199Z,31.47
2023-05-23T18:18:42.264Z,31.45
2023-05-23T18:21:12.258Z,31.48
2023-05-23T18:23:41.985Z,31.50
2023-05-23T18:26:12.586Z,31.53
2023-05-23T18:28:42.629Z,31.57
2023-05-23T18:31:12.558Z,31.58
2023-05-23T18:33:42.787Z,31.55
2023-05-23T18:36:12.579Z,31.56
2023-05-23T18:38:42.797Z,31.58
2023-05-23T18:41:14.911Z,31.57
2023-05-23T18:43:44.719Z,31.62
2023-05-23T18:46:14.106Z,31.67
2023-05-23T18:48:46.386Z,31.72
2023-05-23T18:51:16.763Z,31.81
2023-05-23T18:53:46.379Z,31.87
2023-05-23T18:56:17.192Z,31.88
2023-05-23T18:58:47.114Z,31.94
2023-05-23T19:01:17.706Z,32.10
2023-05-23T19:03:47.468Z,32.12
2023-05-23T19:06:17.035Z,32.03
2023-05-23T19:08:47.315Z,31.88
2023-05-23T19:11:16.812Z,31.72
2023-05-23T19:13:46.475Z,31.57
2023-05-23T19:16:16.548Z,31.48
2023-05-23T19:18:46.352Z,31.40
2023-05-23T19:21:15.825Z,31.33
2023-05-23T19:23:45.030Z,31.24
2023-05-23T19:26:14.763Z,31.13
2023-05-23T19:28:44.023Z,30.97
2023-05-23T19:31:13.829Z,30.89
2023-05-23T19:33:43.750Z,30.84
2023-05-23T19:36:13.393Z,30.79
2023-05-23T19:38:42.655Z,30.68
2023-05-23T19:41:12.944Z,30.52
2023-05-23T19:43:42.132Z,30.08
2023-05-23T19:46:11.536Z,29.57
2023-05-23T19:48:40.981Z,29.11
2023-05-23T19:51:10.761Z,28.66
2023-05-23T19:53:40.135Z,28.44
2023-05-23T19:56:09.847Z,28.48
2023-05-23T19:58:39.350Z,28.36
2023-05-23T20:01:09.080Z,28.28
2023-05-23T20:03:38.620Z,28.28
2023-05-23T20:06:07.850Z,28.25
2023-05-23T20:08:37.793Z,28.07
2023-05-23T20:11:07.097Z,27.96
2023-05-23T20:13:36.677Z,27.81
2023-05-23T20:16:06.015Z,27.51
2023-05-23T20:18:35.955Z,27.18
2023-05-23T20:21:05.553Z,26.87
2023-05-23T20:23:34.968Z,26.72
2023-05-23T20:26:04.329Z,26.44
2023-05-23T20:28:34.034Z,26.29
2023-05-23T20:31:03.584Z,26.21
2023-05-23T20:33:32.809Z,26.17
2023-05-23T20:36:02.908Z,26.21
2023-05-23T20:38:34.990Z,26.20
2023-05-23T20:41:07.797Z,26.26
2023-05-23T20:43:38.238Z,26.21
2023-05-23T20:46:10.301Z,26.22
2023-05-23T20:48:39.762Z,26.25
2023-05-23T20:51:09.857Z,26.23
2023-05-23T20:53:39.452Z,26.28
2023-05-23T20:56:11.419Z,26.32
2023-05-23T20:58:41.997Z,26.36
2023-05-23T21:01:11.250Z,26.34
2023-05-23T21:03:40.600Z,26.40
2023-05-23T21:06:10.265Z,26.34
2023-05-23T21:08:39.560Z,26.30
2023-05-23T21:11:08.991Z,26.28
2023-05-23T21:13:39.911Z,26.32
2023-05-23T21:16:10.067Z,26.38
2023-05-23T21:18:39.676Z,26.39
2023-05-23T21:21:08.693Z,26.33
2023-05-23T21:23:38.073Z,26.42
2023-05-23T21:26:07.742Z,26.50
2023-05-23T21:28:37.424Z,26.53
2023-05-23T21:31:07.430Z,26.63
2023-05-23T21:33:36.737Z,26.58
2023-05-23T21:36:06.013Z,26.46
2023-05-23T21:38:38.628Z,26.50
2023-05-23T21:41:08.710Z,26.48
2023-05-23T21:43:38.599Z,26.48
2023-05-23T21:46:07.676Z,26.41
2023-05-23T21:48:37.149Z,26.51
2023-05-23T21:51:06.395Z,26.41
2023-05-23T21:53:36.260Z,26.37
2023-05-23T21:56:05.732Z,26.36
2023-05-23T21:58:35.091Z,26.45
2023-05-23T22:01:04.093Z,26.58
2023-05-23T22:03:33.640Z,26.55
2023-05-23T22:06:03.008Z,26.60
2023-05-23T22:08:34.329Z,26.63
2023-05-23T22:11:05.417Z,26.57
2023-05-23T22:13:34.901Z,26.67
2023-05-23T22:16:06.321Z,26.70
2023-05-23T22:21:11.045Z,26.67
2023-05-23T22:23:40.217Z,26.81
2023-05-23T22:26:09.706Z,26.73
2023-05-23T22:28:39.114Z,26.77
2023-05-23T22:31:10.386Z,26.79
2023-05-23T22:33:42.288Z,26.66
2023-05-23T22:36:11.893Z,26.59
2023-05-23T22:38:40.987Z,26.61
2023-05-23T22:41:10.302Z,26.54
2023-05-23T22:43:40.261Z,26.57
2023-05-23T22:46:14.929Z,26.54
2023-05-23T22:48:46.163Z,26.55
2023-05-23T22:51:15.686Z,26.55
2023-05-23T22:53:45.030Z,26.49
2023-05-23T22:56:14.506Z,26.47
2023-05-23T22:58:51.069Z,26.49
2023-05-23T23:01:20.700Z,26.49
2023-05-23T23:03:49.979Z,26.41
2023-05-23T23:06:22.134Z,26.47
2023-05-23T23:08:51.754Z,26.38
2023-05-23T23:11:22.087Z,26.45
2023-05-23T23:13:51.373Z,26.40
2023-05-23T23:16:20.864Z,26.38
2023-05-23T23:18:51.666Z,26.38
2023-05-23T23:21:20.920Z,26.34
2023-05-23T23:23:50.141Z,26.38
2023-05-23T23:26:19.741Z,26.30
2023-05-23T23:28:48.792Z,26.42
2023-05-23T23:31:20.135Z,26.46
2023-05-23T23:33:49.818Z,26.36
2023-05-23T23:36:19.069Z,26.32
2023-05-23T23:38:48.496Z,26.39
2023-05-23T23:41:19.275Z,26.42
2023-05-23T23:43:48.834Z,26.45
2023-05-23T23:46:20.134Z,26.39
2023-05-23T23:48:49.635Z,26.31
2023-05-23T23:51:18.975Z,26.22
2023-05-23T23:53:49.799Z,26.28
2023-05-23T23:56:21.147Z,26.21
2023-05-23T23:58:51.111Z,26.30
